LIRE - Pratica Di Mare(, Italy
Distanza dalla stazione: WSW 9km
Aggiornamento: Thu, 22-Feb-2024 7:55am CET
Clear
Clear
 Wind from E
Vento: E 13 km/h
Temperatura: 10°C
Wind Chill: 8°C
Dew Point: 7°C
Umidità: 82%
Barometro: 1019 hPa
Previsione: Clear
Visibilità: greater than 10 km
2024/02/22 06:55 LIRE 220655Z 10007KT CAVOK 10/07 Q1019 RMK SCT SCT200 VIS MIN 9999 WIND THR13 /////KT WIND THR31 /////KT BLU
LIRA - Ciampino(It-Afb/, Italy
Distanza dalla stazione: NNE 16km
Aggiornamento: Thu, 22-Feb-2024 8:50am CET
Clear
Clear
 Wind from NNE
Vento: NNE 4 km/h
Temperatura: 8°C
Dew Point: 5°C
Umidità: 82%
Barometro: 1020 hPa
Previsione: Clear
Visibilità: greater than 10 km
2024/02/22 07:50 LIRA 220750Z 02002KT CAVOK 08/05 Q1020
 
LIRF - Rome/Fiumicino, Italy
Distanza dalla stazione: WNW 27km
Aggiornamento: Thu, 22-Feb-2024 8:50am CET
Clear
Clear
 Wind from E
Vento: E 11 km/h
Temperatura: 8°C
Wind Chill: 6°C
Dew Point: 5°C
Umidità: 82%
Barometro: 1020 hPa
Previsione: Clear
Visibilità: greater than 10 km
2024/02/22 07:50 LIRF 220750Z 09006KT CAVOK 08/05 Q1020 NOSIG
LIRU - Rome/Urbe (it-Af, Italy
Distanza dalla stazione: N 31km
Aggiornamento: Thu, 22-Feb-2024 7:50am CET
Clear
Clear
 Wind from varies
Vento: varies 4 km/h
Temperatura: 3°C
Dew Point: 2°C
Umidità: 93%
Barometro: 1021 hPa
Previsione: Clear
Visibilità: greater than 10 km
2024/02/22 06:50 LIRU 220650Z VRB02KT CAVOK 03/02 Q1021
 
LIRL - Latina (it-Afb), Italy
Distanza dalla stazione: ESE 36km
Aggiornamento: Thu, 22-Feb-2024 7:55am CET
Clear
Clear
 Wind from calm
Vento: Calm
Temperatura: 5°C
Dew Point: 4°C
Umidità: 93%
Barometro: 1020 hPa
Previsione: Clear
Visibilità: greater than 10 km
2024/02/22 06:55 LIRL 220655Z 00000KT CAVOK 05/04 Q1020
LIRG - Guidonia (it-Afb, Italy
Distanza dalla stazione: NNE 41km
Aggiornamento: Thu, 22-Feb-2024 7:55am CET
Clear
Clear
 Wind from NNE
Vento: NNE 6 km/h
Temperatura: 4°C
Dew Point: 3°C
Umidità: 93%
Barometro: 1021 hPa
Previsione: Clear
Visibilità: greater than 10 km
2024/02/22 06:55 LIRG 220655Z 02003KT CAVOK 04/03 Q1021



Metar display Modification script by: Pomeziameteo / script from Saratoga-Weather.org